Time;durP1;ratioP1;P1;durP2;ratioP2;P2;SDS_P1;SDS_P2;PMS_P1;PMS_P2;Temp;Humidity;BMP_temperature;BMP_pressure;BME280_temperature;BME280_humidity;BME280_pressure;Samples;Min_cycle;Max_cycle;Signal;HPM_P1;HPM_P2
2023/03/05 00:00:27;;;;;;;50.25;19.50;;;;;;;-1.63;100.00;96025.38;1018478;29;20027;-65
2023/03/05 00:01:04;;;;;;;44.22;18.13;;;;;;;-1.66;100.00;96020.59;1014755;29;20023;-66
2023/03/05 00:01:35;;;;;;;47.52;19.28;;;;;;;-1.61;100.00;96023.44;1013692;29;20028;-67
2023/03/05 00:02:05;;;;;;;47.38;19.92;;;;;;;-1.60;100.00;96026.81;1019354;29;20022;-66
2023/03/05 00:02:36;;;;;;;45.80;18.92;;;;;;;-1.69;100.00;96014.03;1019265;29;20110;-65
2023/03/05 00:03:06;;;;;;;44.10;18.70;;;;;;;-1.62;100.00;96029.53;1018151;29;20265;-66
2023/03/05 00:03:37;;;;;;;44.72;18.13;;;;;;;-1.64;100.00;96031.50;1010427;29;20031;-68
2023/03/05 00:04:09;;;;;;;46.47;19.50;;;;;;;-1.62;100.00;96033.91;1010732;29;20029;-67
2023/03/05 00:04:40;;;;;;;41.48;19.00;;;;;;;-1.64;100.00;96013.50;1015267;29;20016;-68
2023/03/05 00:05:10;;;;;;;42.05;18.52;;;;;;;-1.67;100.00;96014.66;1014512;29;20032;-66
2023/03/05 00:05:41;;;;;;;47.33;20.15;;;;;;;-1.56;100.00;96022.91;1014561;29;20068;-67
2023/03/05 00:06:11;;;;;;;44.55;18.38;;;;;;;-1.55;100.00;96027.06;1014454;29;20024;-67
2023/03/05 00:06:42;;;;;;;46.00;18.00;;;;;;;-1.55;100.00;96024.47;1014661;29;20443;-67
2023/03/05 00:07:13;;;;;;;44.03;19.48;;;;;;;-1.57;100.00;96019.53;1022428;28;20019;-67
2023/03/05 00:07:43;;;;;;;39.83;17.88;;;;;;;-1.57;100.00;96026.44;1030420;28;20022;-68
2023/03/05 00:08:14;;;;;;;50.28;20.85;;;;;;;-1.58;100.00;96027.41;1026259;28;20070;-66
2023/03/05 00:08:44;;;;;;;47.83;20.02;;;;;;;-1.59;100.00;96021.47;1022064;28;20521;-67
2023/03/05 00:09:15;;;;;;;45.47;18.45;;;;;;;-1.55;100.00;96024.47;1021577;28;20030;-65
2023/03/05 00:09:45;;;;;;;43.45;19.13;;;;;;;-1.58;100.00;96014.53;1018339;29;20030;-66
2023/03/05 00:10:16;;;;;;;43.58;19.23;;;;;;;-1.57;100.00;96026.44;1016706;29;20028;-65
2023/03/05 00:10:58;;;;;;;45.15;19.30;;;;;;;-1.58;100.00;96027.41;1018140;29;20138;-67
2023/03/05 00:11:29;;;;;;;43.22;18.12;;;;;;;-1.58;100.00;96009.41;1015884;29;20123;-66
2023/03/05 00:11:59;;;;;;;43.15;19.90;;;;;;;-1.54;100.00;96020.91;1020205;28;20676;-67
2023/03/05 00:12:29;;;;;;;48.03;19.13;;;;;;;-1.53;100.00;96017.38;1018317;29;20027;-66
2023/03/05 00:13:00;;;;;;;45.88;19.35;;;;;;;-1.60;100.00;96006.22;1018485;29;20023;-67
2023/03/05 00:13:30;;;;;;;43.53;18.25;;;;;;;-1.60;100.00;96017.31;1006800;29;20040;-67
2023/03/05 00:14:02;;;;;;;43.90;18.30;;;;;;;-1.62;100.00;96013.31;1010691;29;20032;-68
2023/03/05 00:14:33;;;;;;;44.10;19.38;;;;;;;-1.61;100.00;96020.03;1018354;29;20028;-66
2023/03/05 00:15:04;;;;;;;45.10;18.83;;;;;;;-1.59;100.00;96025.81;1014998;29;20068;-67
2023/03/05 00:15:39;;;;;;;44.38;18.30;;;;;;;-1.60;100.00;96021.66;1018079;29;20051;-67
2023/03/05 00:16:12;;;;;;;42.72;17.48;;;;;;;-1.63;100.00;96009.16;1013427;29;20133;-69
2023/03/05 00:16:42;;;;;;;42.22;18.05;;;;;;;-1.55;100.00;96017.56;1011662;29;20480;-67
2023/03/05 00:17:12;;;;;;;46.78;19.52;;;;;;;-1.52;100.00;96021.56;1016374;29;20042;-66
2023/03/05 00:17:43;;;;;;;45.05;18.85;;;;;;;-1.53;100.00;96017.38;1018476;29;20304;-68
2023/03/05 00:18:13;;;;;;;45.47;19.05;;;;;;;-1.53;100.00;96012.25;1018204;29;20023;-65
2023/03/05 00:18:45;;;;;;;43.50;19.17;;;;;;;-1.56;100.00;96017.75;1014377;29;20031;-65
2023/03/05 00:19:15;;;;;;;47.10;18.32;;;;;;;-1.58;100.00;96017.13;1017863;29;20083;-66
2023/03/05 00:19:46;;;;;;;41.70;18.97;;;;;;;-1.58;100.00;96020.47;1022182;28;20058;-65
2023/03/05 00:20:16;;;;;;;46.30;18.75;;;;;;;-1.60;100.00;96013.94;1026506;28;20026;-65
2023/03/05 00:20:47;;;;;;;49.10;19.47;;;;;;;-1.59;100.00;96015.53;1026171;28;20512;-67
2023/03/05 00:21:24;;;;;;;49.88;19.77;;;;;;;-1.59;100.00;96015.53;1018385;29;20018;-67
2023/03/05 00:21:54;;;;;;;44.58;18.40;;;;;;;-1.61;100.00;96014.91;1019252;29;20019;-67
2023/03/05 00:22:25;;;;;;;43.28;18.83;;;;;;;-1.61;100.00;96018.28;1019236;29;20847;-67
2023/03/05 00:22:55;;;;;;;48.03;19.08;;;;;;;-1.61;100.00;96014.91;1022281;29;20306;-64
2023/03/05 00:23:26;;;;;;;47.05;18.88;;;;;;;-1.62;100.00;96013.31;1022343;28;20023;-66
2023/03/05 00:23:57;;;;;;;43.33;18.13;;;;;;;-1.63;100.00;96014.31;1022073;28;20024;-67
2023/03/05 00:24:27;;;;;;;44.92;18.10;;;;;;;-1.60;100.00;96012.16;1018368;29;20012;-67
2023/03/05 00:24:58;;;;;;;41.00;18.67;;;;;;;-1.60;100.00;96017.31;1022389;29;20027;-67
2023/03/05 00:25:28;;;;;;;47.05;18.90;;;;;;;-1.57;100.00;96016.16;1021934;29;20023;-65
2023/03/05 00:26:04;;;;;;;43.08;18.42;;;;;;;-1.58;100.00;96017.91;1022420;28;20034;-67
2023/03/05 00:26:35;;;;;;;41.90;17.84;;;;;;;-1.58;100.00;96024.84;1030190;28;20117;-67
2023/03/05 00:27:05;;;;;;;46.24;18.04;;;;;;;-1.55;100.00;96019.34;1022053;29;20145;-64
2023/03/05 00:27:36;;;;;;;45.50;18.65;;;;;;;-1.54;100.00;96020.91;1022386;29;20048;-69
2023/03/05 00:28:06;;;;;;;50.92;18.55;;;;;;;-1.57;100.00;96021.31;1018082;29;20027;-65
2023/03/05 00:28:37;;;;;;;40.45;19.05;;;;;;;-1.55;100.00;96024.47;1022407;28;20078;-66
2023/03/05 00:29:08;;;;;;;44.25;18.30;;;;;;;-1.54;100.00;96026.06;1026165;28;20018;-66
2023/03/05 00:29:38;;;;;;;48.17;19.48;;;;;;;-1.64;100.00;96008.38;1021569;29;20381;-64
2023/03/05 00:30:10;;;;;;;42.55;18.38;;;;;;;-1.62;100.00;96013.31;1018232;29;20015;-66
2023/03/05 00:30:40;;;;;;;41.64;18.34;;;;;;;-1.61;100.00;96017.47;1018135;29;20027;-66
2023/03/05 00:31:11;;;;;;;42.28;17.73;;;;;;;-1.55;100.00;96024.47;1018221;29;20023;-67
2023/03/05 00:31:43;;;;;;;45.38;18.95;;;;;;;-1.56;100.00;96017.75;1014451;29;20020;-65
2023/03/05 00:32:13;;;;;;;50.12;19.74;;;;;;;-1.55;100.00;96016.75;1018419;29;20031;-67
2023/03/05 00:32:44;;;;;;;39.40;18.33;;;;;;;-1.54;100.00;96021.75;1022875;28;20023;-67
2023/03/05 00:33:14;;;;;;;42.47;18.42;;;;;;;-1.53;100.00;96019.97;1030312;28;20023;-65
2023/03/05 00:33:45;;;;;;;43.75;18.40;;;;;;;-1.54;100.00;96023.50;1030238;28;20866;-66
2023/03/05 00:34:16;;;;;;;49.90;19.60;;;;;;;-1.55;100.00;96019.34;1022034;28;20051;-67
2023/03/05 00:34:48;;;;;;;47.35;19.92;;;;;;;-1.50;100.00;96017.03;1017902;29;20031;-66
2023/03/05 00:35:19;;;;;;;38.56;17.04;;;;;;;-1.58;100.00;96012.75;1014932;29;20367;-67
2023/03/05 00:35:49;;;;;;;44.55;19.20;;;;;;;-1.56;100.00;96018.53;1015217;29;20058;-67
2023/03/05 00:36:20;;;;;;;51.40;19.65;;;;;;;-1.59;100.00;96013.75;1022307;28;20039;-65
2023/03/05 00:36:50;;;;;;;45.20;18.92;;;;;;;-1.53;100.00;96009.69;1018356;29;20026;-66
2023/03/05 00:37:21;;;;;;;43.47;18.40;;;;;;;-1.49;100.00;96018.63;1014605;29;20020;-68
2023/03/05 00:37:52;;;;;;;46.60;18.50;;;;;;;-1.57;100.00;96001.53;1018439;29;20024;-65
2023/03/05 00:38:22;;;;;;;44.60;17.90;;;;;;;-1.50;100.00;96017.03;1010810;29;20518;-65
2023/03/05 00:38:52;;;;;;;45.25;17.77;;;;;;;-1.50;100.00;96012.69;1014412;29;20110;-65
2023/03/05 00:39:23;;;;;;;44.80;17.95;;;;;;;-1.55;100.00;96016.75;1013710;29;20561;-66
2023/03/05 00:39:53;;;;;;;38.38;16.48;;;;;;;-1.55;100.00;96014.97;1018222;29;20036;-66
2023/03/05 00:40:24;;;;;;;45.28;18.27;;;;;;;-1.54;100.00;96010.63;1014502;29;20059;-66
2023/03/05 00:40:54;;;;;;;47.00;18.58;;;;;;;-1.50;100.00;96004.16;1014174;29;20383;-67
2023/03/05 00:41:25;;;;;;;43.63;17.55;;;;;;;-1.56;100.00;95997.97;1018506;28;20015;-67
2023/03/05 00:41:55;;;;;;;43.97;19.33;;;;;;;-1.47;100.00;96003.81;1026510;28;20097;-67
2023/03/05 00:42:26;;;;;;;38.38;18.17;;;;;;;-1.44;100.00;96006.03;1030186;28;20488;-65
2023/03/05 00:42:56;;;;;;;44.55;18.50;;;;;;;-1.53;100.00;95984.75;1026228;28;20074;-65
2023/03/05 00:43:27;;;;;;;39.30;18.00;;;;;;;-1.50;100.00;96007.53;1022153;29;20031;-67
2023/03/05 00:43:58;;;;;;;44.30;17.83;;;;;;;-1.51;100.00;96002.56;1018401;29;20091;-67
2023/03/05 00:44:28;;;;;;;46.42;19.30;;;;;;;-1.50;100.00;95996.44;1019085;28;20019;-66
2023/03/05 00:44:59;;;;;;;42.00;18.70;;;;;;;-1.48;100.00;96000.41;1022410;28;20047;-67
2023/03/05 00:45:29;;;;;;;38.10;17.30;;;;;;;-1.49;100.00;95998.81;1026218;28;20723;-68
2023/03/05 00:46:00;;;;;;;42.83;17.48;;;;;;;-1.44;100.00;96000.88;1024075;28;20019;-68
2023/03/05 00:46:30;;;;;;;38.80;16.83;;;;;;;-1.51;100.00;96003.38;1026213;28;20122;-69
2023/03/05 00:47:01;;;;;;;39.88;17.08;;;;;;;-1.51;100.00;95999.97;1022162;28;20138;-66
2023/03/05 00:47:31;;;;;;;42.28;17.35;;;;;;;-1.50;100.00;96002.38;1014281;29;20598;-67
2023/03/05 00:48:02;;;;;;;41.13;18.52;;;;;;;-1.49;100.00;95992.88;1018169;29;20046;-67
2023/03/05 00:48:33;;;;;;;42.70;17.23;;;;;;;-1.48;100.00;96000.41;1014499;29;20040;-66
2023/03/05 00:49:03;;;;;;;38.90;17.92;;;;;;;-1.48;100.00;96004.78;1014590;29;20079;-67
2023/03/05 00:49:33;;;;;;;40.85;16.95;;;;;;;-1.51;100.00;95989.69;1017417;29;20035;-65
2023/03/05 00:50:05;;;;;;;41.85;17.02;;;;;;;-1.50;100.00;95992.09;1018184;29;20143;-67
2023/03/05 00:50:35;;;;;;;39.12;16.74;;;;;;;-1.52;100.00;95988.91;1018437;29;20485;-65
2023/03/05 00:51:06;;;;;;;36.47;16.33;;;;;;;-1.53;100.00;95986.50;1018226;29;20030;-67
2023/03/05 00:51:36;;;;;;;36.47;16.30;;;;;;;-1.46;100.00;96002.81;1016311;29;20039;-66
2023/03/05 00:52:07;;;;;;;41.72;18.00;;;;;;;-1.52;100.00;95994.03;1018407;29;20016;-68
2023/03/05 00:52:37;;;;;;;45.17;17.67;;;;;;;-1.54;100.00;95995.19;1022424;28;20509;-66
2023/03/05 00:53:08;;;;;;;40.60;17.15;;;;;;;-1.51;100.00;95994.84;1025230;28;20044;-68
2023/03/05 00:53:38;;;;;;;42.55;16.98;;;;;;;-1.48;100.00;95994.47;1018326;29;20028;-67
2023/03/05 00:54:09;;;;;;;40.05;16.83;;;;;;;-1.47;100.00;95998.66;1018457;29;20043;-66
2023/03/05 00:54:39;;;;;;;44.05;17.85;;;;;;;-1.50;100.00;95994.66;1022331;28;20031;-67
2023/03/05 00:55:10;;;;;;;38.17;17.55;;;;;;;-1.48;100.00;96000.41;1025975;28;20015;-67
2023/03/05 00:55:40;;;;;;;42.75;18.42;;;;;;;-1.47;100.00;95998.66;1022056;28;20034;-67
2023/03/05 00:56:11;;;;;;;40.00;17.63;;;;;;;-1.48;100.00;95995.28;1017639;29;20059;-67
2023/03/05 00:56:42;;;;;;;37.58;17.35;;;;;;;-1.44;100.00;95995.72;1014217;29;20039;-66
2023/03/05 00:57:12;;;;;;;38.63;17.80;;;;;;;-1.44;100.00;96000.88;1018190;29;20023;-67
2023/03/05 00:57:43;;;;;;;42.83;17.77;;;;;;;-1.38;100.00;95991.63;1022443;28;20105;-66
2023/03/05 00:58:13;;;;;;;41.90;17.08;;;;;;;-1.43;100.00;95989.59;1026130;28;20620;-65
2023/03/05 00:58:44;;;;;;;38.28;17.33;;;;;;;-1.47;100.00;95989.16;1026194;28;20513;-67
2023/03/05 00:59:14;;;;;;;44.53;18.60;;;;;;;-1.45;100.00;95994.13;1025429;28;20018;-65
2023/03/05 00:59:44;;;;;;;42.88;18.35;;;;;;;-1.46;100.00;95992.53;1021961;29;20083;-67
2023/03/05 01:00:15;;;;;;;34.17;16.08;;;;;;;-1.56;100.00;95982.53;1018058;29;20117;-67
2023/03/05 01:00:49;;;;;;;39.40;16.70;;;;;;;-1.45;100.00;95996.69;1018238;29;20012;-69
2023/03/05 01:01:19;;;;;;;40.74;17.36;;;;;;;-1.46;100.00;95995.09;1018183;29;20024;-68
2023/03/05 01:01:50;;;;;;;42.53;17.38;;;;;;;-1.47;100.00;95996.88;1013154;29;20569;-66
2023/03/05 01:02:20;;;;;;;41.03;17.13;;;;;;;-1.50;100.00;95993.88;1014907;29;20025;-66
2023/03/05 01:02:51;;;;;;;38.55;17.02;;;;;;;-1.47;100.00;95996.88;1018215;29;20023;-66
2023/03/05 01:03:21;;;;;;;42.47;17.90;;;;;;;-1.46;100.00;95995.09;1015011;29;20424;-67
2023/03/05 01:03:52;;;;;;;38.47;17.55;;;;;;;-1.43;100.00;95994.75;1018171;29;20048;-66
2023/03/05 01:04:22;;;;;;;41.65;18.25;;;;;;;-1.52;100.00;95981.19;1018472;29;20019;-68
2023/03/05 01:04:52;;;;;;;42.30;16.83;;;;;;;-1.45;100.00;95988.97;1022431;28;20031;-67
2023/03/05 01:05:23;;;;;;;38.63;16.98;;;;;;;-1.47;100.00;95985.81;1030358;28;20112;-69
2023/03/05 01:05:54;;;;;;;40.97;17.40;;;;;;;-1.50;100.00;95978.44;1018266;29;20026;-67
2023/03/05 01:06:24;;;;;;;40.97;17.67;;;;;;;-1.47;100.00;95985.81;1018419;29;20545;-67
2023/03/05 01:06:55;;;;;;;36.17;17.73;;;;;;;-1.45;100.00;95983.81;1018168;29;20027;-67
2023/03/05 01:07:25;;;;;;;39.03;17.73;;;;;;;-1.52;100.00;95982.97;1018676;28;20024;-68
2023/03/05 01:07:56;;;;;;;41.05;17.05;;;;;;;-1.46;100.00;95987.38;1022023;28;20114;-66
2023/03/05 01:08:26;;;;;;;40.38;17.92;;;;;;;-1.50;100.00;95974.09;1026297;28;20481;-66
2023/03/05 01:08:58;;;;;;;39.85;16.75;;;;;;;-1.46;100.00;95987.38;1018489;29;20363;-68
2023/03/05 01:09:29;;;;;;;42.88;17.26;;;;;;;-1.46;100.00;95982.25;1017771;29;20020;-69
2023/03/05 01:09:59;;;;;;;41.10;17.98;;;;;;;-1.48;100.00;95979.84;1021822;29;20134;-67
2023/03/05 01:10:30;;;;;;;35.60;16.05;;;;;;;-1.45;100.00;95991.53;1022172;28;20959;-66
2023/03/05 01:11:01;;;;;;;38.00;16.63;;;;;;;-1.58;100.00;95970.81;1030207;28;20048;-66
2023/03/05 01:11:31;;;;;;;36.40;15.95;;;;;;;-1.50;100.00;95984.38;1026193;28;20026;-68
2023/03/05 01:12:02;;;;;;;41.85;17.63;;;;;;;-1.50;100.00;95981.00;1022072;28;20031;-68
2023/03/05 01:12:32;;;;;;;43.95;18.15;;;;;;;-1.50;100.00;95981.00;1022295;29;20573;-67
2023/03/05 01:13:02;;;;;;;43.58;17.77;;;;;;;-1.56;100.00;95971.44;1022375;28;20038;-68
2023/03/05 01:13:33;;;;;;;41.55;17.85;;;;;;;-1.49;100.00;95982.59;1022098;28;20031;-64
2023/03/05 01:14:03;;;;;;;40.05;18.35;;;;;;;-1.50;100.00;95983.59;1020297;28;20074;-67
2023/03/05 01:14:35;;;;;;;39.08;16.80;;;;;;;-1.52;100.00;95983.75;1022203;29;20553;-67
2023/03/05 01:15:06;;;;;;;40.96;17.04;;;;;;;-1.59;100.00;95967.44;1022357;28;20557;-65
2023/03/05 01:15:36;;;;;;;40.35;17.30;;;;;;;-1.52;100.00;95983.75;1018772;29;20027;-68
2023/03/05 01:16:07;;;;;;;35.70;16.33;;;;;;;-1.56;100.00;95968.88;1022386;28;20848;-66
2023/03/05 01:16:37;;;;;;;41.65;16.48;;;;;;;-1.48;100.00;95979.03;1026395;28;20019;-65
2023/03/05 01:17:08;;;;;;;38.92;17.50;;;;;;;-1.49;100.00;95983.38;1020356;28;20027;-67
2023/03/05 01:17:38;;;;;;;37.70;16.45;;;;;;;-1.49;100.00;95980.81;1022324;28;20023;-68
2023/03/05 01:18:09;;;;;;;41.80;17.43;;;;;;;-1.47;100.00;95989.16;1022167;28;20821;-68
2023/03/05 01:18:39;;;;;;;43.45;18.17;;;;;;;-1.55;100.00;95978.97;1022201;28;20082;-66
2023/03/05 01:19:10;;;;;;;36.67;16.73;;;;;;;-1.51;100.00;95975.06;1022216;29;20828;-67
2023/03/05 01:19:40;;;;;;;43.75;17.65;;;;;;;-1.51;100.00;95972.50;1013800;29;20035;-68
2023/03/05 01:20:15;;;;;;;42.90;18.58;;;;;;;-1.46;100.00;95983.03;1014143;29;20020;-67
2023/03/05 01:20:45;;;;;;;41.70;16.78;;;;;;;-1.45;100.00;95979.47;1018775;29;20019;-66
2023/03/05 01:21:16;;;;;;;38.80;16.67;;;;;;;-1.46;100.00;95977.09;1023604;28;20494;-64
2023/03/05 01:21:46;;;;;;;43.17;16.63;;;;;;;-1.45;100.00;95984.63;1029452;28;20515;-67
2023/03/05 01:22:17;;;;;;;39.85;15.45;;;;;;;-1.44;100.00;95981.09;1025989;28;20023;-68
2023/03/05 01:22:47;;;;;;;40.92;16.27;;;;;;;-1.43;100.00;95974.16;1029937;28;20045;-67
2023/03/05 01:23:18;;;;;;;45.70;17.70;;;;;;;-1.52;100.00;95967.53;1030150;28;20024;-66
2023/03/05 01:23:48;;;;;;;40.35;16.92;;;;;;;-1.45;100.00;95976.09;1025868;28;20421;-68
2023/03/05 01:24:19;;;;;;;44.05;18.77;;;;;;;-1.60;100.00;95949.63;1021972;29;20023;-65
2023/03/05 01:24:50;;;;;;;38.82;16.80;;;;;;;-1.48;100.00;95966.97;1014312;29;20058;-67
2023/03/05 01:25:20;;;;;;;39.30;15.88;;;;;;;-1.40;100.00;95975.59;1022177;29;20055;-65
2023/03/05 01:25:55;;;;;;;41.03;17.10;;;;;;;-1.40;100.00;95970.44;1022122;28;20070;-68
2023/03/05 01:26:26;;;;;;;40.16;16.06;;;;;;;-1.40;100.00;95975.59;1025844;28;20066;-65
2023/03/05 01:26:56;;;;;;;36.60;15.57;;;;;;;-1.37;100.00;95976.00;1026195;28;20022;-65
2023/03/05 01:27:26;;;;;;;39.95;17.50;;;;;;;-1.42;100.00;95968.81;1021881;28;20016;-66
2023/03/05 01:27:57;;;;;;;39.10;17.13;;;;;;;-1.43;100.00;95971.59;1022219;28;20634;-67
2023/03/05 01:28:27;;;;;;;43.70;18.00;;;;;;;-1.51;100.00;95966.53;1021848;29;20051;-65
2023/03/05 01:28:58;;;;;;;40.53;17.42;;;;;;;-1.47;100.00;95971.16;1018197;29;20027;-65
2023/03/05 01:29:29;;;;;;;45.42;18.02;;;;;;;-1.52;100.00;95957.22;1021315;29;20024;-67
2023/03/05 01:29:59;;;;;;;36.90;16.08;;;;;;;-1.48;100.00;95961.03;1014406;29;20023;-66
2023/03/05 01:30:30;;;;;;;42.22;17.80;;;;;;;-1.46;100.00;95967.59;1018098;29;20039;-67
2023/03/05 01:31:00;;;;;;;39.88;16.65;;;;;;;-1.46;100.00;95972.75;1018233;29;20374;-65
2023/03/05 01:31:31;;;;;;;41.00;18.15;;;;;;;-1.50;100.00;95960.44;1026038;28;20023;-67
2023/03/05 01:32:01;;;;;;;42.40;17.02;;;;;;;-1.47;100.00;95954.91;1022240;29;20034;-67
2023/03/05 01:32:32;;;;;;;45.83;17.70;;;;;;;-1.43;100.00;95967.22;1025884;28;20054;-66
2023/03/05 01:33:03;;;;;;;41.58;17.72;;;;;;;-1.41;100.00;95956.75;1026003;28;20370;-68
2023/03/05 01:33:33;;;;;;;41.50;17.42;;;;;;;-1.43;100.00;95951.00;1025987;28;20085;-66
2023/03/05 01:34:04;;;;;;;40.40;17.63;;;;;;;-1.42;100.00;95960.31;1022006;28;20134;-67
2023/03/05 01:34:37;;;;;;;45.25;18.35;;;;;;;-1.39;100.00;95954.78;1021954;29;20055;-67
2023/03/05 01:35:09;;;;;;;44.68;18.02;;;;;;;-1.44;100.00;95942.50;1022036;29;20489;-67
2023/03/05 01:35:39;;;;;;;42.58;16.40;;;;;;;-1.39;100.00;95956.56;1018070;29;20119;-67
2023/03/05 01:36:14;;;;;;;37.80;16.25;;;;;;;-1.44;100.00;95962.28;1022008;29;20019;-66
2023/03/05 01:36:45;;;;;;;39.94;16.16;;;;;;;-1.43;100.00;95958.72;1018051;29;20027;-65
2023/03/05 01:37:15;;;;;;;43.13;17.17;;;;;;;-1.51;100.00;95949.34;1022092;29;20015;-65
2023/03/05 01:37:46;;;;;;;41.40;16.50;;;;;;;-1.47;100.00;95954.91;1021925;29;20569;-65
2023/03/05 01:38:16;;;;;;;43.50;17.48;;;;;;;-1.47;100.00;95960.88;1018227;29;20023;-65
2023/03/05 01:38:47;;;;;;;42.67;18.52;;;;;;;-1.48;100.00;95958.44;1017915;29;20028;-66
2023/03/05 01:39:17;;;;;;;42.50;18.15;;;;;;;-1.51;100.00;95948.53;1021218;28;20063;-67
2023/03/05 01:39:48;;;;;;;45.00;18.55;;;;;;;-1.47;100.00;95953.13;1013746;29;20040;-64
2023/03/05 01:40:28;;;;;;;38.17;18.08;;;;;;;-1.44;100.00;95949.41;1014224;29;20083;-65
2023/03/05 01:40:58;;;;;;;;;;;;;;;-1.43;100.00;95951.00;1016950;29;20067;-66
2023/03/05 01:41:29;;;;;;;40.38;16.38;;;;;;;-1.46;100.00;95946.22;1016817;29;19937;-65
2023/03/05 01:41:59;;;;;;;39.03;17.98;;;;;;;-1.51;100.00;95943.38;1022057;29;20147;-67
2023/03/05 01:42:30;;;;;;;46.30;18.58;;;;;;;-1.49;100.00;95951.72;1022989;28;20563;-69
2023/03/05 01:43:09;;;;;;;44.42;18.15;;;;;;;-1.45;100.00;95948.59;1021972;29;20449;-65
2023/03/05 01:43:40;;;;;;;39.66;17.54;;;;;;;-1.51;100.00;95933.09;1018189;29;20020;-67
2023/03/05 01:44:20;;;;;;;37.60;16.50;;;;;;;-1.52;100.00;95946.94;1015210;29;20550;-67
2023/03/05 01:45:02;;;;;;;45.05;18.08;;;;;;;-1.49;100.00;95946.56;1014197;29;20048;-65
2023/03/05 01:45:33;;;;;;;43.78;17.80;;;;;;;-1.52;100.00;95936.66;1017007;29;20031;-66
2023/03/05 01:46:22;;;;;;;46.48;19.00;;;;;;;-1.45;100.00;95943.44;1019500;28;20024;-67
2023/03/05 01:46:53;;;;;;;45.46;17.98;;;;;;;-1.45;100.00;95942.66;1022061;29;20027;-66
2023/03/05 01:47:23;;;;;;;37.88;16.73;;;;;;;-1.59;100.00;95920.34;1022057;29;20037;-66
2023/03/05 01:47:54;;;;;;;43.05;17.75;;;;;;;-1.44;100.00;95939.13;1021971;28;20021;-67
2023/03/05 01:48:25;;;;;;;38.67;16.58;;;;;;;-1.48;100.00;95938.66;1018188;29;20470;-67
2023/03/05 01:49:00;;;;;;;41.38;17.73;;;;;;;-1.44;100.00;95944.28;1018346;29;20039;-67
2023/03/05 01:49:40;;;;;;;47.42;18.26;;;;;;;-1.43;100.00;95943.28;1017189;29;20833;-65
2023/03/05 01:50:13;;;;;;;40.42;16.70;;;;;;;-1.51;100.00;95928.75;1016019;29;20024;-68
2023/03/05 01:50:43;;;;;;;43.92;17.30;;;;;;;-1.48;100.00;95927.56;1012624;29;20028;-67
2023/03/05 01:51:15;;;;;;;41.45;18.30;;;;;;;-1.45;100.00;95932.34;1011776;29;20052;-66
2023/03/05 01:52:09;;;;;;;40.32;17.58;;;;;;;-1.55;100.00;95931.84;1002388;29;20025;-66
2023/03/05 01:52:40;;;;;;;40.62;17.78;;;;;;;-1.47;100.00;95931.75;1014185;29;20032;-67
2023/03/05 01:53:11;;;;;;;44.92;18.68;;;;;;;-1.51;100.00;95928.75;1017750;28;20102;-67
2023/03/05 01:53:41;;;;;;;41.67;17.75;;;;;;;-1.49;100.00;95923.41;1018034;29;20501;-66
2023/03/05 01:54:12;;;;;;;40.38;17.73;;;;;;;-1.44;100.00;95931.41;1014143;29;20036;-65
2023/03/05 01:54:54;;;;;;;40.68;17.92;;;;;;;-1.45;100.00;95927.22;1014302;29;20027;-68
2023/03/05 01:55:26;;;;;;;39.44;17.42;;;;;;;-1.52;100.00;95927.16;1018041;29;20119;-67
2023/03/05 01:55:56;;;;;;;42.00;17.06;;;;;;;-1.50;100.00;95926.97;1022112;29;20031;-65
2023/03/05 01:56:27;;;;;;;45.13;18.33;;;;;;;-1.42;100.00;95937.16;1018060;29;20020;-67
2023/03/05 01:56:58;;;;;;;40.03;17.88;;;;;;;-1.48;100.00;95925.00;1014367;29;20379;-65
2023/03/05 01:57:37;;;;;;;44.02;18.40;;;;;;;-1.46;100.00;95921.28;1014394;29;20485;-67
2023/03/05 01:58:09;;;;;;;39.42;17.60;;;;;;;-1.50;100.00;95921.84;1019239;29;20484;-67
2023/03/05 01:58:40;;;;;;;40.66;17.62;;;;;;;-1.43;100.00;95935.56;1017495;29;20453;-67
2023/03/05 01:59:10;;;;;;;40.17;17.73;;;;;;;-1.48;100.00;95925.00;1022026;28;20023;-67
2023/03/05 01:59:41;;;;;;;47.72;18.67;;;;;;;-1.43;100.00;95935.56;1021313;29;20015;-67
2023/03/05 02:00:17;;;;;;;40.10;17.44;;;;;;;-1.43;100.00;95928.63;1025727;28;20023;-66
2023/03/05 02:00:48;;;;;;;39.50;17.90;;;;;;;-1.50;100.00;95922.63;1018062;29;20089;-65
2023/03/05 02:01:18;;;;;;;40.20;17.40;;;;;;;-1.39;100.00;95928.28;1021986;29;20557;-66
2023/03/05 02:01:50;;;;;;;35.90;17.10;;;;;;;-1.33;100.00;95935.25;1025684;28;20023;-65
2023/03/05 02:02:21;;;;;;;44.80;18.12;;;;;;;-1.37;100.00;95929.69;1021997;29;20785;-66
2023/03/05 02:02:51;;;;;;;39.25;18.27;;;;;;;-1.42;100.00;95932.00;1022016;29;20074;-66
2023/03/05 02:03:22;;;;;;;40.47;18.13;;;;;;;-1.47;100.00;95924.03;1021821;28;20086;-67
2023/03/05 02:03:52;;;;;;;40.65;18.40;;;;;;;-1.48;100.00;95922.44;1017934;29;20557;-65
2023/03/05 02:04:27;;;;;;;40.47;17.30;;;;;;;-1.47;100.00;95924.03;1020280;29;20474;-67
2023/03/05 02:05:01;;;;;;;41.22;18.22;;;;;;;-1.52;100.00;95922.00;1022091;28;20015;-67
2023/03/05 02:05:33;;;;;;;46.28;18.52;;;;;;;-1.43;100.00;95927.84;1021952;29;20015;-65
2023/03/05 02:06:04;;;;;;;38.30;17.12;;;;;;;-1.44;100.00;95926.25;1025794;28;20074;-67
2023/03/05 02:06:34;;;;;;;43.05;16.83;;;;;;;-1.42;100.00;95924.28;1025892;28;20122;-66
2023/03/05 02:07:05;;;;;;;42.67;18.08;;;;;;;-1.45;100.00;95917.72;1017980;29;20111;-68
2023/03/05 02:07:36;;;;;;;39.85;17.30;;;;;;;-1.44;100.00;95927.06;1015069;29;20706;-65
2023/03/05 02:08:08;;;;;;;43.50;18.96;;;;;;;-1.43;100.00;95930.41;1014703;29;20381;-66
2023/03/05 02:08:39;;;;;;;43.02;18.40;;;;;;;-1.40;100.00;95924.13;1026960;28;20019;-65
2023/03/05 02:09:09;;;;;;;39.20;18.10;;;;;;;-1.40;100.00;95932.63;1019144;29;20027;-67
2023/03/05 02:09:40;;;;;;;42.67;17.63;;;;;;;-1.38;100.00;95927.28;1021818;29;20031;-67
2023/03/05 02:10:18;;;;;;;42.13;16.55;;;;;;;-1.46;100.00;95917.91;1018590;29;20031;-68
2023/03/05 02:10:52;;;;;;;46.06;18.90;;;;;;;-1.43;100.00;95917.53;1012202;29;20653;-66
2023/03/05 02:11:23;;;;;;;38.74;17.36;;;;;;;-1.39;100.00;95928.28;1018825;29;20493;-66
2023/03/05 02:11:53;;;;;;;44.45;17.52;;;;;;;-1.42;100.00;95921.69;1022706;28;20011;-67
2023/03/05 02:12:24;;;;;;;39.00;16.40;;;;;;;-1.40;100.00;95922.34;1014941;29;20016;-66
2023/03/05 02:12:56;;;;;;;44.17;18.80;;;;;;;-1.42;100.00;95925.06;1022701;29;20051;-64
2023/03/05 02:13:30;;;;;;;43.68;18.00;;;;;;;-1.44;100.00;95921.09;1025543;28;20597;-65
2023/03/05 02:14:02;;;;;;;40.78;16.80;;;;;;;-1.47;100.00;95914.53;1022904;29;20015;-67
2023/03/05 02:14:32;;;;;;;40.10;17.44;;;;;;;-1.47;100.00;95913.75;1014910;29;20032;-65
2023/03/05 02:15:03;;;;;;;41.78;18.90;;;;;;;-1.43;100.00;95923.47;1019005;29;20051;-66
2023/03/05 02:15:34;;;;;;;42.60;17.55;;;;;;;-1.51;100.00;95904.78;1019052;29;20461;-67
2023/03/05 02:16:04;;;;;;;41.72;17.38;;;;;;;-1.43;100.00;95920.13;1019322;28;20016;-66
2023/03/05 02:16:35;;;;;;;44.00;18.20;;;;;;;-1.46;100.00;95910.97;1022689;29;20082;-67
2023/03/05 02:17:06;;;;;;;39.08;17.50;;;;;;;-1.42;100.00;95919.13;1018757;29;20019;-65
2023/03/05 02:17:37;;;;;;;43.62;18.48;;;;;;;-1.43;100.00;95914.97;1018961;29;20039;-67
2023/03/05 02:18:07;;;;;;;42.38;17.65;;;;;;;-1.41;100.00;95915.56;1022856;28;20722;-68
2023/03/05 02:18:38;;;;;;;45.22;18.77;;;;;;;-1.45;100.00;95912.56;1022503;28;20024;-66
2023/03/05 02:19:09;;;;;;;45.13;18.55;;;;;;;-1.42;100.00;95911.41;1018812;29;20390;-65
2023/03/05 02:19:47;;;;;;;39.46;17.22;;;;;;;-1.42;100.00;95911.41;1014331;29;20522;-67
2023/03/05 02:20:20;;;;;;;41.00;17.82;;;;;;;-1.41;100.00;95913.00;1008260;29;20018;-65
2023/03/05 02:20:54;;;;;;;43.32;18.62;;;;;;;-1.40;100.00;95909.47;1014855;29;20425;-68
2023/03/05 02:21:28;;;;;;;48.70;18.46;;;;;;;-1.44;100.00;95896.16;1016678;29;20455;-68
2023/03/05 02:21:59;;;;;;;47.16;19.76;;;;;;;-1.40;100.00;95909.47;1019645;28;20032;-68
2023/03/05 02:22:29;;;;;;;42.83;17.58;;;;;;;-1.43;100.00;95902.09;1015007;29;20020;-66
2023/03/05 02:23:00;;;;;;;42.05;16.75;;;;;;;-1.40;100.00;95900.94;1012574;29;20025;-65